Aviation Digital Data Service (ADDS)

Output produced by METARs form (0021 UTC 24 May 2022)
found at http://www.aviationweather.gov/metar/data/
 
TAF SUCA 232330Z 2400/2424 02008KT 9999 SCT026 BKN200 TX20/2418Z TN12/2410Z
       
TAF SUDU 232330Z 2400/2424 04005KT CAVOK TX22/2418Z TN10/2410Z 
     TEMPO 2406/2411 3000 BR NSC 
     TEMPO 2406/2410 0800 BCFG
       
TAF SUMU 232330Z 2400/2424 03008KT 9999 SCT030 BKN200 TX19/2418Z TN12/2410Z 
     PROB30 
     TEMPO 2402/2409 5000 BR NSC
       
TAF SUAA 232330Z 2400/2424 02008KT 9999 SCT023 BKN200 TX20/2418Z TN11/2410Z
       
TAF SULS 232330Z 2400/2424 04007KT 9999 SCT026 BKN200 TX20/2418Z TN11/2410Z 
     PROB40 
     TEMPO 2402/2409 5000 BR NSC
       
TAF SURV 232330Z 2400/2424 02007KT CAVOK TX23/2418Z TN10/2410Z 
     TEMPO 2404/2411 3000 BR NSC 
     TEMPO 2406/2410 0800 BCFG
       
TAF SUSO 232330Z 2400/2424 05005KT CAVOK TX23/2418Z TN10/2410Z 
     TEMPO 2406/2411 3000 BR NSC 
     TEMPO 2406/2410 0800 BCFG